createdAt,value
2018-09-30T00:00:40.271Z,9.50
2018-09-30T00:03:08.343Z,9.50
2018-09-30T00:05:36.441Z,9.40
2018-09-30T00:08:04.503Z,9.40
2018-09-30T00:10:32.610Z,9.40
2018-09-30T00:13:00.684Z,9.40
2018-09-30T00:15:29.069Z,9.40
2018-09-30T00:17:57.133Z,9.40
2018-09-30T00:20:25.203Z,9.40
2018-09-30T00:22:53.510Z,9.40
2018-09-30T00:25:26.909Z,9.40
2018-09-30T00:27:54.988Z,9.40
2018-09-30T00:30:23.056Z,9.40
2018-09-30T00:32:51.167Z,9.40
2018-09-30T00:35:19.214Z,9.40
2018-09-30T00:37:47.295Z,9.40
2018-09-30T00:40:15.359Z,9.40
2018-09-30T00:42:43.419Z,9.40
2018-09-30T00:45:11.483Z,9.40
2018-09-30T00:47:39.564Z,9.50
2018-09-30T00:50:07.802Z,9.50
2018-09-30T00:52:35.986Z,9.50
2018-09-30T00:55:04.308Z,9.50
2018-09-30T00:57:32.418Z,9.50
2018-09-30T01:00:00.489Z,9.50
2018-09-30T01:02:28.867Z,9.50
2018-09-30T01:04:56.937Z,9.50
2018-09-30T01:07:25.055Z,9.50
2018-09-30T01:09:53.159Z,9.60
2018-09-30T01:12:21.223Z,9.60
2018-09-30T01:14:49.299Z,9.60
2018-09-30T01:17:17.370Z,9.60
2018-09-30T01:19:45.446Z,9.70
2018-09-30T01:22:14.283Z,9.70
2018-09-30T01:24:42.350Z,9.70
2018-09-30T01:27:10.457Z,9.70
2018-09-30T01:29:38.518Z,9.70
2018-09-30T01:32:06.610Z,9.70
2018-09-30T01:34:34.720Z,9.70
2018-09-30T01:37:02.811Z,9.60
2018-09-30T01:39:30.953Z,9.70
2018-09-30T01:41:59.030Z,9.70
2018-09-30T01:44:27.152Z,9.60
2018-09-30T01:46:55.194Z,9.60
2018-09-30T01:49:23.718Z,9.60
2018-09-30T01:52:03.169Z,9.60
2018-09-30T01:54:31.231Z,9.60
2018-09-30T01:56:59.295Z,9.60
2018-09-30T01:59:27.381Z,9.60
2018-09-30T02:01:55.471Z,9.60
2018-09-30T02:04:23.545Z,9.60
2018-09-30T02:06:51.802Z,9.50
2018-09-30T02:09:19.863Z,9.50
2018-09-30T02:11:47.970Z,9.40
2018-09-30T02:14:16.019Z,9.30
2018-09-30T02:16:44.203Z,9.30
2018-09-30T02:19:12.281Z,9.20
2018-09-30T02:21:40.348Z,9.30
2018-09-30T02:24:08.611Z,9.20
2018-09-30T02:26:36.686Z,9.20
2018-09-30T02:29:04.783Z,9.10
2018-09-30T02:31:32.865Z,9.10
2018-09-30T02:34:00.932Z,9.00
2018-09-30T02:36:29.231Z,9.00
2018-09-30T02:38:57.299Z,9.10
2018-09-30T02:41:25.394Z,9.20
2018-09-30T02:43:53.458Z,9.30
2018-09-30T02:46:21.525Z,9.30
2018-09-30T02:48:49.632Z,9.30
2018-09-30T02:51:17.723Z,9.30
2018-09-30T02:53:45.814Z,9.30
2018-09-30T02:56:13.897Z,9.30
2018-09-30T02:58:41.992Z,9.30
2018-09-30T03:01:10.049Z,9.30
2018-09-30T03:03:38.122Z,9.30
2018-09-30T03:06:10.690Z,9.30
2018-09-30T03:08:44.121Z,9.30
2018-09-30T03:11:12.411Z,9.30
2018-09-30T03:13:40.502Z,9.20
2018-09-30T03:16:08.562Z,9.10
2018-09-30T03:18:36.690Z,9.20
2018-09-30T03:21:04.982Z,9.20
2018-09-30T03:23:33.087Z,9.20
2018-09-30T03:26:01.160Z,9.20
2018-09-30T03:28:29.223Z,9.20
2018-09-30T03:30:57.991Z,9.20
2018-09-30T03:33:26.066Z,9.20
2018-09-30T03:35:54.149Z,9.20
2018-09-30T03:38:22.395Z,9.20
2018-09-30T03:40:50.458Z,9.20
2018-09-30T03:43:18.517Z,9.20
2018-09-30T03:45:46.587Z,9.20
2018-09-30T03:48:14.633Z,9.20
2018-09-30T03:50:42.694Z,9.20
2018-09-30T03:53:10.749Z,9.20
2018-09-30T03:55:38.826Z,9.20
2018-09-30T03:58:07.088Z,9.10
2018-09-30T04:00:35.163Z,9.10
2018-09-30T04:03:03.219Z,9.10
2018-09-30T04:05:31.283Z,9.10
2018-09-30T04:07:59.853Z,9.10
2018-09-30T04:10:27.939Z,9.20
2018-09-30T04:12:56.108Z,9.10
2018-09-30T04:15:24.186Z,9.10
2018-09-30T04:17:52.251Z,9.10
2018-09-30T04:20:20.342Z,9.10
2018-09-30T04:22:48.420Z,9.00
2018-09-30T04:25:16.481Z,9.10
2018-09-30T04:27:44.540Z,9.00
2018-09-30T04:30:12.602Z,9.10
2018-09-30T04:32:40.696Z,9.10
2018-09-30T04:35:08.927Z,9.00
2018-09-30T04:37:36.993Z,9.10
2018-09-30T04:40:05.158Z,9.10
2018-09-30T04:42:33.223Z,9.00
2018-09-30T04:45:01.334Z,9.00
2018-09-30T04:47:29.406Z,9.00
2018-09-30T04:49:57.766Z,9.00
2018-09-30T04:52:25.799Z,9.00
2018-09-30T04:54:53.869Z,9.10
2018-09-30T04:57:22.323Z,9.10
2018-09-30T04:59:50.393Z,9.10
2018-09-30T05:02:18.465Z,9.10
2018-09-30T05:04:46.534Z,9.10
2018-09-30T05:07:14.669Z,9.10
2018-09-30T05:09:42.750Z,9.10
2018-09-30T05:12:10.851Z,9.00
2018-09-30T05:14:39.032Z,9.10
2018-09-30T05:17:07.144Z,9.10
2018-09-30T05:19:35.250Z,9.10
2018-09-30T05:22:03.342Z,9.10
2018-09-30T05:24:31.423Z,9.10
2018-09-30T05:26:59.501Z,9.10
2018-09-30T05:29:27.563Z,9.10
2018-09-30T05:31:56.724Z,9.10
2018-09-30T05:34:24.793Z,9.00
2018-09-30T05:36:52.877Z,9.00
2018-09-30T05:39:20.935Z,9.00
2018-09-30T05:41:48.991Z,9.10
2018-09-30T05:44:17.055Z,9.10
2018-09-30T05:46:45.117Z,9.20
2018-09-30T05:49:13.188Z,9.20
2018-09-30T05:51:41.275Z,9.20
2018-09-30T05:54:09.322Z,9.10
2018-09-30T05:56:39.085Z,9.00
2018-09-30T05:59:07.163Z,9.20
2018-09-30T06:01:35.242Z,9.20
2018-09-30T06:04:03.385Z,9.30
2018-09-30T06:06:32.026Z,9.30
2018-09-30T06:09:00.125Z,9.30
2018-09-30T06:11:28.170Z,9.30
2018-09-30T06:13:56.275Z,9.30
2018-09-30T06:16:24.323Z,9.30
2018-09-30T06:18:52.385Z,9.40
2018-09-30T06:21:20.458Z,9.40
2018-09-30T06:23:48.522Z,9.30
2018-09-30T06:26:16.607Z,9.30
2018-09-30T06:28:44.727Z,9.40
2018-09-30T06:31:12.803Z,9.40
2018-09-30T06:33:40.866Z,9.40
2018-09-30T06:36:08.929Z,9.50
2018-09-30T06:38:37.263Z,9.50
2018-09-30T06:41:05.343Z,9.40
2018-09-30T06:43:33.399Z,9.40
2018-09-30T06:46:01.478Z,9.50
2018-09-30T06:48:29.543Z,9.50
2018-09-30T06:50:57.671Z,9.50
2018-09-30T06:53:25.687Z,9.60
2018-09-30T06:55:53.769Z,9.60
2018-09-30T06:58:22.403Z,9.60
2018-09-30T07:00:50.469Z,9.50
2018-09-30T07:03:18.757Z,9.50
2018-09-30T07:05:46.802Z,9.50
2018-09-30T07:08:15.974Z,9.50
2018-09-30T07:10:44.172Z,9.40
2018-09-30T07:13:12.264Z,9.40
2018-09-30T07:15:40.378Z,9.40
2018-09-30T07:18:08.448Z,9.30
2018-09-30T07:20:36.524Z,9.40
2018-09-30T07:23:04.598Z,9.50
2018-09-30T07:25:32.657Z,9.60
2018-09-30T07:28:00.720Z,9.70
2018-09-30T07:30:28.782Z,9.80
2018-09-30T07:32:56.864Z,9.90
2018-09-30T07:35:24.968Z,10.00
2018-09-30T07:37:53.069Z,10.00
2018-09-30T07:40:21.159Z,10.10
2018-09-30T07:42:49.229Z,10.20
2018-09-30T07:45:17.308Z,10.20
2018-09-30T07:47:45.394Z,10.40
2018-09-30T07:50:13.522Z,10.50
2018-09-30T07:52:41.919Z,10.70
2018-09-30T07:55:10.186Z,11.20
2018-09-30T07:57:38.295Z,11.50
2018-09-30T08:00:06.910Z,11.50
2018-09-30T08:02:35.004Z,11.40
2018-09-30T08:05:03.117Z,11.30
2018-09-30T08:07:31.192Z,11.40
2018-09-30T08:09:59.537Z,11.60
2018-09-30T08:12:27.634Z,11.60
2018-09-30T08:14:55.740Z,11.60
2018-09-30T08:17:24.230Z,11.60
2018-09-30T08:19:52.334Z,11.70
2018-09-30T08:22:20.428Z,11.90
2018-09-30T08:24:48.564Z,11.90
2018-09-30T08:27:16.855Z,12.00
2018-09-30T08:29:44.927Z,12.00
2018-09-30T08:32:13.030Z,12.00
2018-09-30T08:34:41.114Z,12.10
2018-09-30T08:37:09.208Z,12.10
2018-09-30T08:39:37.556Z,12.10
2018-09-30T08:42:05.661Z,12.10
2018-09-30T08:44:33.796Z,12.00
2018-09-30T08:47:01.917Z,11.90
2018-09-30T08:49:30.019Z,12.00
2018-09-30T08:51:58.147Z,12.20
2018-09-30T08:54:26.284Z,12.20
2018-09-30T08:56:54.359Z,12.20
2018-09-30T08:59:22.519Z,12.30
2018-09-30T09:01:50.610Z,12.30
2018-09-30T09:04:18.676Z,12.60
2018-09-30T09:06:46.751Z,12.70
2018-09-30T09:09:14.831Z,12.60
2018-09-30T09:11:42.906Z,12.70
2018-09-30T09:14:10.990Z,12.70
2018-09-30T09:16:39.062Z,12.70
2018-09-30T09:19:07.155Z,12.80
2018-09-30T09:21:35.338Z,12.80
2018-09-30T09:24:03.470Z,13.00
2018-09-30T09:26:31.530Z,13.10
2018-09-30T09:28:59.631Z,13.10
2018-09-30T09:31:27.723Z,13.10
2018-09-30T09:33:55.844Z,13.10
2018-09-30T09:36:23.919Z,13.20
2018-09-30T09:38:51.995Z,13.20
2018-09-30T09:41:20.078Z,13.10
2018-09-30T09:43:48.284Z,13.30
2018-09-30T09:46:16.355Z,13.40
2018-09-30T09:48:44.422Z,13.60
2018-09-30T09:51:12.498Z,13.70
2018-09-30T09:53:40.579Z,13.60
2018-09-30T09:56:08.646Z,13.40
2018-09-30T09:58:36.744Z,13.50
2018-09-30T10:01:04.828Z,13.80
2018-09-30T10:03:32.948Z,13.80
2018-09-30T10:06:01.263Z,13.80
2018-09-30T10:08:29.375Z,13.90
2018-09-30T10:10:57.476Z,14.00
2018-09-30T10:13:25.578Z,14.10
2018-09-30T10:15:53.664Z,14.00
2018-09-30T10:18:22.905Z,13.90
2018-09-30T10:20:50.990Z,14.00
2018-09-30T10:23:19.084Z,14.20
2018-09-30T10:25:47.209Z,14.30
2018-09-30T10:28:15.338Z,14.30
2018-09-30T10:30:43.466Z,14.40
2018-09-30T10:33:11.578Z,14.40
2018-09-30T10:35:39.725Z,14.30
2018-09-30T10:38:07.885Z,14.50
2018-09-30T10:40:35.931Z,14.40
2018-09-30T10:43:04.224Z,14.50
2018-09-30T10:45:32.329Z,14.50
2018-09-30T10:48:00.416Z,14.50
2018-09-30T10:50:28.507Z,14.50
2018-09-30T10:52:56.590Z,14.60
2018-09-30T10:55:24.793Z,14.40
2018-09-30T10:57:52.861Z,14.50
2018-09-30T11:00:21.503Z,14.50
2018-09-30T11:02:49.598Z,14.50
2018-09-30T11:05:17.669Z,14.70
2018-09-30T11:07:45.738Z,14.70
2018-09-30T11:10:14.001Z,14.70
2018-09-30T11:12:42.010Z,14.80
2018-09-30T11:15:10.131Z,15.10
2018-09-30T11:17:38.226Z,14.90
2018-09-30T11:20:07.011Z,15.00
2018-09-30T11:22:35.199Z,15.00
2018-09-30T11:25:03.728Z,15.10
2018-09-30T11:27:31.957Z,15.00
2018-09-30T11:30:00.080Z,15.00
2018-09-30T11:32:28.171Z,14.90
2018-09-30T11:34:56.271Z,15.10
2018-09-30T11:37:24.444Z,15.20
2018-09-30T11:39:52.695Z,15.40
2018-09-30T11:42:20.808Z,15.50
2018-09-30T11:44:48.892Z,15.40
2018-09-30T11:47:16.978Z,15.50
2018-09-30T11:49:45.047Z,15.50
2018-09-30T11:52:13.126Z,15.50
2018-09-30T11:54:41.246Z,15.40
2018-09-30T11:57:09.317Z,15.50
2018-09-30T11:59:37.477Z,15.60
2018-09-30T12:02:05.862Z,15.80
2018-09-30T12:04:33.926Z,15.80
2018-09-30T12:07:02.303Z,15.80
2018-09-30T12:09:30.444Z,15.90
2018-09-30T12:11:58.540Z,16.20
2018-09-30T12:14:26.630Z,16.10
2018-09-30T12:16:54.719Z,16.00
2018-09-30T12:19:22.811Z,15.90
2018-09-30T12:21:51.025Z,15.90
2018-09-30T12:24:19.143Z,15.70
2018-09-30T12:26:47.219Z,15.70
2018-09-30T12:29:15.343Z,15.90
2018-09-30T12:31:43.447Z,15.80
2018-09-30T12:34:11.527Z,15.90
2018-09-30T12:36:39.607Z,15.70
2018-09-30T12:39:09.479Z,15.70
2018-09-30T12:41:37.766Z,15.90
2018-09-30T12:44:05.906Z,15.90
2018-09-30T12:46:33.979Z,16.00
2018-09-30T12:49:02.266Z,16.10
2018-09-30T12:51:30.359Z,16.10
2018-09-30T12:53:58.447Z,15.90
2018-09-30T12:56:26.613Z,15.70
2018-09-30T12:58:54.685Z,15.50
2018-09-30T13:01:23.278Z,15.70
2018-09-30T13:03:51.372Z,15.70
2018-09-30T13:06:19.430Z,15.80
2018-09-30T13:08:47.490Z,15.80
2018-09-30T13:11:15.750Z,15.60
2018-09-30T13:13:43.827Z,15.50
2018-09-30T13:16:11.923Z,15.60
2018-09-30T13:18:40.706Z,15.50
2018-09-30T13:21:09.052Z,15.50
2018-09-30T13:23:37.147Z,15.60
2018-09-30T13:26:05.213Z,15.70
2018-09-30T13:28:33.307Z,15.70
2018-09-30T13:31:01.404Z,15.60
2018-09-30T13:33:29.526Z,15.60
2018-09-30T13:35:57.598Z,15.80
2018-09-30T13:38:25.665Z,15.80
2018-09-30T13:40:53.925Z,15.90
2018-09-30T13:43:21.851Z,15.90
2018-09-30T13:45:49.947Z,15.80
2018-09-30T13:48:18.033Z,15.60
2018-09-30T13:50:46.123Z,15.70
2018-09-30T13:53:14.207Z,15.70
2018-09-30T13:55:42.861Z,15.70
2018-09-30T13:58:11.037Z,15.80
2018-09-30T14:00:39.119Z,15.80
2018-09-30T14:03:07.391Z,15.80
2018-09-30T14:05:35.492Z,15.80
2018-09-30T14:08:03.555Z,15.90
2018-09-30T14:10:31.650Z,15.80
2018-09-30T14:12:59.717Z,15.90
2018-09-30T14:15:27.782Z,15.90
2018-09-30T14:17:55.875Z,15.90
2018-09-30T14:20:23.943Z,15.70
2018-09-30T14:22:52.103Z,15.80
2018-09-30T14:25:20.183Z,15.80
2018-09-30T14:27:48.295Z,15.80
2018-09-30T14:30:16.377Z,15.60
2018-09-30T14:32:44.511Z,15.80
2018-09-30T14:35:12.574Z,15.80
2018-09-30T14:37:40.693Z,15.90
2018-09-30T14:40:09.235Z,15.90
2018-09-30T14:42:37.336Z,15.90
2018-09-30T14:45:05.612Z,15.80
2018-09-30T14:47:33.725Z,15.80
2018-09-30T14:50:01.866Z,15.70
2018-09-30T14:52:29.983Z,15.70
2018-09-30T14:54:58.130Z,15.70
2018-09-30T14:57:26.554Z,15.70
2018-09-30T14:59:54.628Z,15.50
2018-09-30T15:02:22.726Z,15.40
2018-09-30T15:04:50.799Z,15.40
2018-09-30T15:07:18.937Z,15.40
2018-09-30T15:09:47.034Z,15.50
2018-09-30T15:12:15.136Z,15.40
2018-09-30T15:14:44.123Z,15.40
2018-09-30T15:17:12.350Z,15.30
2018-09-30T15:19:40.434Z,15.30
2018-09-30T15:22:08.510Z,15.40
2018-09-30T15:24:36.593Z,15.50
2018-09-30T15:27:04.722Z,15.50
2018-09-30T15:29:32.953Z,15.50
2018-09-30T15:32:01.066Z,15.50
2018-09-30T15:34:29.162Z,15.50
2018-09-30T15:36:57.243Z,15.50
2018-09-30T15:39:25.322Z,15.50
2018-09-30T15:41:53.414Z,15.40
2018-09-30T15:44:21.767Z,15.50
2018-09-30T15:46:49.861Z,15.50
2018-09-30T15:49:18.539Z,15.50
2018-09-30T15:51:46.635Z,15.60
2018-09-30T15:54:14.708Z,15.60
2018-09-30T15:56:42.841Z,15.50
2018-09-30T15:59:10.930Z,15.50
2018-09-30T16:01:39.186Z,15.60
2018-09-30T16:04:07.282Z,15.70
2018-09-30T16:06:35.386Z,15.60
2018-09-30T16:09:03.718Z,15.60
2018-09-30T16:11:31.838Z,15.50
2018-09-30T16:14:01.384Z,15.30
2018-09-30T16:16:29.463Z,15.30
2018-09-30T16:18:57.609Z,15.20
2018-09-30T16:21:25.809Z,15.20
2018-09-30T16:23:53.894Z,15.20
2018-09-30T16:26:21.987Z,15.20
2018-09-30T16:28:50.092Z,15.20
2018-09-30T16:31:18.211Z,15.10
2018-09-30T16:33:46.337Z,15.10
2018-09-30T16:36:14.436Z,15.00
2018-09-30T16:38:42.526Z,15.00
2018-09-30T16:41:10.631Z,15.00
2018-09-30T16:43:38.750Z,14.90
2018-09-30T16:46:06.973Z,14.90
2018-09-30T16:48:35.052Z,14.90
2018-09-30T16:51:03.169Z,14.90
2018-09-30T16:53:31.250Z,14.90
2018-09-30T16:55:59.344Z,14.90
2018-09-30T16:58:27.425Z,14.90
2018-09-30T17:00:55.654Z,14.90
2018-09-30T17:03:24.028Z,14.90
2018-09-30T17:05:52.102Z,14.90
2018-09-30T17:08:20.190Z,14.90
2018-09-30T17:10:48.259Z,14.80
2018-09-30T17:13:16.419Z,14.80
2018-09-30T17:15:44.525Z,14.80
2018-09-30T17:18:12.635Z,14.80
2018-09-30T17:20:40.750Z,14.90
2018-09-30T17:23:08.839Z,14.80
2018-09-30T17:25:37.791Z,14.70
2018-09-30T17:28:05.893Z,14.60
2018-09-30T17:30:34.243Z,14.50
2018-09-30T17:33:02.335Z,14.50
2018-09-30T17:35:30.455Z,14.50
2018-09-30T17:37:58.660Z,14.50
2018-09-30T17:40:26.838Z,14.50
2018-09-30T17:42:55.005Z,14.50
2018-09-30T17:45:23.763Z,14.50
2018-09-30T17:47:51.860Z,14.40
2018-09-30T17:50:20.131Z,14.40
2018-09-30T17:52:48.268Z,14.40
2018-09-30T17:55:16.351Z,14.40
2018-09-30T17:57:44.431Z,14.40
2018-09-30T18:00:12.717Z,14.40
2018-09-30T18:02:40.859Z,14.40
2018-09-30T18:05:08.961Z,14.40
2018-09-30T18:07:37.044Z,14.50
2018-09-30T18:10:05.511Z,14.40
2018-09-30T18:12:33.603Z,14.40
2018-09-30T18:15:01.706Z,14.40
2018-09-30T18:17:29.799Z,14.40
2018-09-30T18:19:58.507Z,14.40
2018-09-30T18:22:26.807Z,14.40
2018-09-30T18:24:54.919Z,14.30
2018-09-30T18:27:22.982Z,14.30
2018-09-30T18:29:51.115Z,14.30
2018-09-30T18:32:19.222Z,14.20
2018-09-30T18:34:47.564Z,14.20
2018-09-30T18:37:15.677Z,14.20
2018-09-30T18:39:43.814Z,14.20
2018-09-30T18:42:11.991Z,14.20
2018-09-30T18:44:40.099Z,14.10
2018-09-30T18:47:08.242Z,14.10
2018-09-30T18:49:36.327Z,14.00
2018-09-30T18:52:04.405Z,14.10
2018-09-30T18:54:32.504Z,14.10
2018-09-30T18:57:00.616Z,14.10
2018-09-30T18:59:28.722Z,14.10
2018-09-30T19:01:56.794Z,14.10
2018-09-30T19:04:24.888Z,14.00
2018-09-30T19:06:53.035Z,14.00
2018-09-30T19:09:22.093Z,14.00
2018-09-30T19:11:50.182Z,14.00
2018-09-30T19:14:18.270Z,13.90
2018-09-30T19:16:46.374Z,13.90
2018-09-30T19:19:14.551Z,13.90
2018-09-30T19:21:42.579Z,13.80
2018-09-30T19:24:10.686Z,13.90
2018-09-30T19:26:38.800Z,13.80
2018-09-30T19:29:06.937Z,13.80
2018-09-30T19:31:35.110Z,13.80
2018-09-30T19:34:03.335Z,13.70
2018-09-30T19:36:31.414Z,13.80
2018-09-30T19:38:59.525Z,13.70
2018-09-30T19:41:27.612Z,13.80
2018-09-30T19:43:55.686Z,14.00
2018-09-30T19:46:23.770Z,13.80
2018-09-30T19:48:51.934Z,13.70
2018-09-30T19:51:20.158Z,13.70
2018-09-30T19:53:48.222Z,13.70
2018-09-30T19:56:16.318Z,13.60
2018-09-30T19:58:44.453Z,13.50
2018-09-30T20:01:12.565Z,13.50
2018-09-30T20:03:40.675Z,13.50
2018-09-30T20:06:08.936Z,13.50
2018-09-30T20:08:37.091Z,13.50
2018-09-30T20:11:05.179Z,13.50
2018-09-30T20:13:33.291Z,13.40
2018-09-30T20:16:03.054Z,13.40
2018-09-30T20:18:31.133Z,13.50
2018-09-30T20:20:59.528Z,13.50
2018-09-30T20:23:27.584Z,13.60
2018-09-30T20:25:55.695Z,13.50
2018-09-30T20:28:23.783Z,13.40
2018-09-30T20:30:52.131Z,13.40
2018-09-30T20:33:20.219Z,13.40
2018-09-30T20:35:48.327Z,13.40
2018-09-30T20:38:17.518Z,13.40
2018-09-30T20:40:46.095Z,13.50
2018-09-30T20:43:14.321Z,13.40
2018-09-30T20:45:42.388Z,13.40
2018-09-30T20:48:10.457Z,13.40
2018-09-30T20:50:38.535Z,13.30
2018-09-30T20:53:06.643Z,13.40
2018-09-30T20:55:35.058Z,13.40
2018-09-30T20:58:03.230Z,13.40
2018-09-30T21:00:32.532Z,13.40
2018-09-30T21:03:00.724Z,13.40
2018-09-30T21:06:39.423Z,13.50
2018-09-30T21:09:08.756Z,13.50
2018-09-30T21:11:36.899Z,13.50
2018-09-30T21:14:05.510Z,13.50
2018-09-30T21:16:33.794Z,13.50
2018-09-30T21:19:01.883Z,13.60
2018-09-30T21:21:29.982Z,13.50
2018-09-30T21:23:58.091Z,13.50
2018-09-30T21:26:26.203Z,13.40
2018-09-30T21:28:54.279Z,13.30
2018-09-30T21:31:22.412Z,13.20
2018-09-30T21:33:50.514Z,13.20
2018-09-30T21:36:18.633Z,13.30
2018-09-30T21:38:46.707Z,13.20
2018-09-30T21:41:14.869Z,13.20
2018-09-30T21:43:43.144Z,13.20
2018-09-30T21:46:11.226Z,13.10
2018-09-30T21:48:40.232Z,13.00
2018-09-30T21:51:08.300Z,13.00
2018-09-30T21:53:36.387Z,13.00
2018-09-30T21:56:04.477Z,13.00
2018-09-30T21:58:32.595Z,13.10
2018-09-30T22:01:01.899Z,13.10
2018-09-30T22:03:30.163Z,13.10
2018-09-30T22:05:58.374Z,13.00
2018-09-30T22:08:26.465Z,13.00
2018-09-30T22:10:55.302Z,12.90
2018-09-30T22:13:23.478Z,12.90
2018-09-30T22:15:52.348Z,12.80
2018-09-30T22:18:20.464Z,12.80
2018-09-30T22:20:48.540Z,12.80
2018-09-30T22:23:16.715Z,12.80
2018-09-30T22:25:44.810Z,12.80
2018-09-30T22:28:12.939Z,12.80
2018-09-30T22:30:41.003Z,12.80
2018-09-30T22:33:09.093Z,12.80
2018-09-30T22:35:37.180Z,12.80
2018-09-30T22:38:05.261Z,12.70
2018-09-30T22:40:33.328Z,12.70
2018-09-30T22:43:01.427Z,12.70
2018-09-30T22:45:29.515Z,12.60
2018-09-30T22:47:58.167Z,12.60
2018-09-30T22:50:26.333Z,12.60
2018-09-30T22:52:54.407Z,12.60
2018-09-30T22:55:22.618Z,12.60
2018-09-30T22:57:50.694Z,12.60
2018-09-30T23:00:18.798Z,12.70
2018-09-30T23:02:47.075Z,12.60
2018-09-30T23:05:15.131Z,12.60
2018-09-30T23:07:43.214Z,12.60
2018-09-30T23:10:12.607Z,12.70
2018-09-30T23:12:40.975Z,12.70
2018-09-30T23:15:09.425Z,12.70
2018-09-30T23:17:39.082Z,12.60
2018-09-30T23:20:13.580Z,12.60
2018-09-30T23:22:41.656Z,12.70
2018-09-30T23:25:09.726Z,12.70
2018-09-30T23:27:37.922Z,12.70
2018-09-30T23:30:06.305Z,12.70
2018-09-30T23:32:34.593Z,12.70
2018-09-30T23:35:02.794Z,12.70
2018-09-30T23:37:30.893Z,12.70
2018-09-30T23:39:59.055Z,12.70
2018-09-30T23:42:27.185Z,12.80
2018-09-30T23:44:55.339Z,12.70
2018-09-30T23:47:23.466Z,12.70
2018-09-30T23:49:51.546Z,12.80
2018-09-30T23:52:19.644Z,12.70
2018-09-30T23:54:47.930Z,12.70
2018-09-30T23:57:16.025Z,12.70
2018-09-30T23:59:44.092Z,12.60
